Map

Track Data

SID SEASON NUMBER BASIN SUBBASIN NAME ISO_TIME NATURE LAT LON WMO_WIND WMO_PRES WMO_AGENCY TRACK_TYPE DIST2LAND LANDFALL IFLAG USA_AGENCY USA_ATCF_ID USA_LAT USA_LON USA_RECORD USA_STATUS USA_WIND USA_PRES USA_SSHS USA_R34_NE USA_R34_SE USA_R34_SW USA_R34_NW USA_R50_NE USA_R50_SE USA_R50_SW USA_R50_NW USA_R64_NE USA_R64_SE USA_R64_SW USA_R64_NW USA_POCI USA_ROCI USA_RMW USA_EYE TOKYO_LAT TOKYO_LON TOKYO_GRADE TOKYO_WIND TOKYO_PRES TOKYO_R50_DIR TOKYO_R50_LONG TOKYO_R50_SHORT TOKYO_R30_DIR TOKYO_R30_LONG TOKYO_R30_SHORT TOKYO_LAND CMA_LAT CMA_LON CMA_CAT CMA_WIND CMA_PRES HKO_LAT HKO_LON HKO_CAT HKO_WIND HKO_PRES NEWDELHI_LAT NEWDELHI_LON NEWDELHI_GRADE NEWDELHI_WIND NEWDELHI_PRES NEWDELHI_CI NEWDELHI_DP NEWDELHI_POCI REUNION_LAT REUNION_LON REUNION_TYPE REUNION_WIND REUNION_PRES REUNION_TNUM REUNION_CI REUNION_RMW REUNION_R34_NE REUNION_R34_SE REUNION_R34_SW REUNION_R34_NW REUNION_R50_NE REUNION_R50_SE REUNION_R50_SW REUNION_R50_NW REUNION_R64_NE REUNION_R64_SE REUNION_R64_SW REUNION_R64_NW BOM_LAT BOM_LON BOM_TYPE BOM_WIND BOM_PRES BOM_TNUM BOM_CI BOM_RMW BOM_R34_NE BOM_R34_SE BOM_R34_SW BOM_R34_NW BOM_R50_NE BOM_R50_SE BOM_R50_SW BOM_R50_NW BOM_R64_NE BOM_R64_SE BOM_R64_SW BOM_R64_NW BOM_ROCI BOM_POCI BOM_EYE BOM_POS_METHOD BOM_PRES_METHOD NADI_LAT NADI_LON NADI_CAT NADI_WIND NADI_PRES WELLINGTON_LAT WELLINGTON_LON WELLINGTON_WIND WELLINGTON_PRES DS824_LAT DS824_LON DS824_STAGE DS824_WIND DS824_PRES TD9636_LAT TD9636_LON TD9636_STAGE TD9636_WIND TD9636_PRES TD9635_LAT TD9635_LON TD9635_WIND TD9635_PRES TD9635_ROCI NEUMANN_LAT NEUMANN_LON NEUMANN_CLASS NEUMANN_WIND NEUMANN_PRES MLC_LAT MLC_LON MLC_CLASS MLC_WIND MLC_PRES USA_GUST BOM_GUST BOM_GUST_PER REUNION_GUST REUNION_GUST_PER USA_SEAHGT USA_SEARAD_NE USA_SEARAD_SE USA_SEARAD_SW USA_SEARAD_NW STORM_SPEED STORM_DIR
1896277N16126 1896 40 WP MM NOT_NAMED 1896-10-03 04:00:00 NR 16.0000 126.000 main 288 263 __________O___ -1 16.0000 126.000 7 17 277
1896277N16126 1896 40 WP MM NOT_NAMED 1896-10-03 06:00:00 NR 16.0703 125.404 main 263 227 __________P___ -1 16.0703 125.404 7 17 277
1896277N16126 1896 40 WP MM NOT_NAMED 1896-10-03 09:00:00 NR 16.1727 124.520 main 227 144 __________P___ -1 16.1727 124.520 7 17 277
1896277N16126 1896 40 WP MM NOT_NAMED 1896-10-03 12:00:00 NR 16.2718 123.665 main 144 67 __________P___ -1 16.2718 123.665 7 16 277
1896277N16126 1896 40 WP MM NOT_NAMED 1896-10-03 15:00:00 NR 16.3683 122.856 main 67 39 __________P___ -1 16.3683 122.856 7 15 277
1896277N16126 1896 40 WP MM NOT_NAMED 1896-10-03 16:00:00 NR 16.4000 122.600 main 39 0 __________O___ -1 16.4000 122.600 3 14 278
1896277N16126 1896 40 WP MM NOT_NAMED 1896-10-03 18:00:00 NR 16.4635 122.110 main 0 0 __________P___ -1 16.4635 122.110 3 14 278
1896277N16126 1896 40 WP MM NOT_NAMED 1896-10-03 21:00:00 NR 16.5657 121.426 main 0 0 __________P___ -1 16.5657 121.426 3 13 280
1896277N16126 1896 40 WP MM NOT_NAMED 1896-10-04 00:00:00 NR 16.6872 120.791 main 0 0 __________P___ -1 16.6872 120.791 3 12 283
1896277N16126 1896 40 WP MM NOT_NAMED 1896-10-04 03:00:00 NR 16.8400 120.193 main 21 21 __________P___ -1 16.8400 120.193 3 12 286
1896277N16126 1896 40 WP MM NOT_NAMED 1896-10-04 04:00:00 NR 16.9000 120.000 main 44 44 __________O___ -1 16.9000 120.000 4 12 289
1896277N16126 1896 40 WP MM NOT_NAMED 1896-10-04 06:00:00 NR 17.0377 119.600 main 81 81 __________P___ -1 17.0377 119.600 4 12 292
1896277N16126 1896 40 WP MM NOT_NAMED 1896-10-04 09:00:00 NR 17.2762 119.025 main 140 140 __________P___ -1 17.2762 119.025 4 12 295
1896277N16126 1896 40 WP MM NOT_NAMED 1896-10-04 12:00:00 NR 17.5390 118.480 main 191 190 __________P___ -1 17.5390 118.480 4 11 298
1896277N16126 1896 40 WP MM NOT_NAMED 1896-10-04 15:00:00 NR 17.8104 117.965 main 244 255 __________P___ -1 17.8104 117.965 4 11 299
1896277N16126 1896 40 WP MM NOT_NAMED 1896-10-04 16:00:00 NR 17.9000 117.800 main 266 266 __________O___ -1 17.9000 117.800 4 11 299
1896277N16126 1896 40 WP MM NOT_NAMED 1896-10-04 18:00:00 NR 18.0661 117.479 main 301 301 __________P___ -1 18.0661 117.479 4 10 299
1896277N16126 1896 40 WP MM NOT_NAMED 1896-10-04 21:00:00 NR 18.3157 117.024 main 357 357 __________P___ -1 18.3157 117.024 4 10 300
1896277N16126 1896 40 WP MM NOT_NAMED 1896-10-05 00:00:00 NR 18.5658 116.585 main 406 406 __________P___ -1 18.5658 116.585 4 10 301
1896277N16126 1896 40 WP MM NOT_NAMED 1896-10-05 03:00:00 NR 18.8164 116.148 main 432 418 __________P___ -1 18.8164 116.148 4 10 301
1896277N16126 1896 40 WP MM NOT_NAMED 1896-10-05 04:00:00 NR 18.9000 116.000 main 418 386 __________O___ -1 18.9000 116.000 4 10 300
1896277N16126 1896 40 WP MM NOT_NAMED 1896-10-05 06:00:00 NR 19.0717 115.689 main 386 348 __________P___ -1 19.0717 115.689 4 10 300
1896277N16126 1896 40 WP MM NOT_NAMED 1896-10-05 09:00:00 NR 19.3295 115.216 main 348 304 __________P___ -1 19.3295 115.216 4 10 300
1896277N16126 1896 40 WP MM NOT_NAMED 1896-10-05 12:00:00 NR 19.5821 114.739 main 304 270 __________P___ -1 19.5821 114.739 4 10 299
1896277N16126 1896 40 WP MM NOT_NAMED 1896-10-05 15:00:00 NR 19.8232 114.259 main 270 251 __________P___ -1 19.8232 114.259 4 10 298
1896277N16126 1896 40 WP MM NOT_NAMED 1896-10-05 16:00:00 NR 19.9000 114.100 main 251 228 __________O___ -1 19.9000 114.100 4 10 297
1896277N16126 1896 40 WP MM NOT_NAMED 1896-10-05 18:00:00 NR 20.0472 113.782 main 228 181 __________P___ -1 20.0472 113.782 4 10 295
1896277N16126 1896 40 WP MM NOT_NAMED 1896-10-05 21:00:00 NR 20.2547 113.306 main 181 143 __________P___ -1 20.2547 113.306 4 10 294
1896277N16126 1896 40 WP MM NOT_NAMED 1896-10-06 00:00:00 NR 20.4501 112.832 main 143 123 __________P___ -1 20.4501 112.832 4 10 293
1896277N16126 1896 40 WP MM NOT_NAMED 1896-10-06 03:00:00 NR 20.6382 112.358 main 123 108 __________P___ -1 20.6382 112.358 4 10 293
1896277N16126 1896 40 WP MM NOT_NAMED 1896-10-06 04:00:00 NR 20.7000 112.200 main 108 __________O___ -1 20.7000 112.200 4 10 293

Digital Typhoon Data and Search

About IBTrACS Database

This database is a web-friendly format of International Best Track Archive for Climate Stewardship (IBTrACS), a global best track data archive curated by NOAA dating back to 1842.

Updated: 2021-11-26